createdAt,value
2018-04-28T00:01:55.190Z,12.17
2018-04-28T00:07:10.961Z,12.12
2018-04-28T00:09:39.428Z,12.16
2018-04-28T00:12:08.646Z,12.20
2018-04-28T00:14:37.019Z,12.07
2018-04-28T00:17:08.168Z,12.09
2018-04-28T00:19:41.850Z,12.03
2018-04-28T00:22:22.882Z,11.95
2018-04-28T00:24:59.232Z,12.01
2018-04-28T00:27:35.492Z,12.04
2018-04-28T00:33:29.140Z,12.03
2018-04-28T00:38:57.678Z,12.07
2018-04-28T00:44:32.373Z,11.93
2018-04-28T00:47:09.226Z,11.95
2018-04-28T00:49:39.326Z,11.97
2018-04-28T00:52:08.440Z,11.99
2018-04-28T00:54:46.336Z,12.02
2018-04-28T01:04:39.287Z,12.08
2018-04-28T01:07:08.438Z,12.13
2018-04-28T01:09:36.823Z,12.12
2018-04-28T01:12:05.183Z,12.05
2018-04-28T01:14:43.828Z,11.95
2018-04-28T01:17:24.200Z,12.00
2018-04-28T01:19:59.407Z,11.94
2018-04-28T01:22:29.553Z,11.96
2018-04-28T01:25:01.797Z,11.94
2018-04-28T01:33:58.478Z,11.84
2018-04-28T01:36:46.070Z,11.85
2018-04-28T01:39:40.043Z,11.91
2018-04-28T01:48:42.130Z,11.86
2018-04-28T01:54:33.391Z,12.13
2018-04-28T02:00:25.150Z,12.14
2018-04-28T02:03:04.082Z,12.17
2018-04-28T02:19:36.501Z,11.62
2018-04-28T02:25:21.324Z,11.64
2018-04-28T02:28:05.276Z,11.67
2018-04-28T02:30:59.151Z,11.68
2018-04-28T02:33:36.131Z,11.70
2018-04-28T02:39:15.331Z,11.81
2018-04-28T02:41:44.871Z,11.89
2018-04-28T02:47:25.547Z,11.83
2018-04-28T02:50:03.140Z,11.83
2018-04-28T02:52:46.089Z,11.80
2018-04-28T02:59:01.346Z,11.75
2018-04-28T03:01:35.269Z,11.69
2018-04-28T03:04:06.226Z,11.73
2018-04-28T03:06:49.320Z,11.69
2018-04-28T03:09:41.046Z,11.67
2018-04-28T03:12:09.376Z,11.65
2018-04-28T03:14:49.237Z,11.65
2018-04-28T03:17:22.686Z,11.64
2018-04-28T03:19:59.660Z,11.67
2018-04-28T03:22:29.905Z,11.74
2018-04-28T03:25:16.158Z,11.82
2018-04-28T03:28:10.932Z,11.89
2018-04-28T03:30:42.223Z,11.84
2018-04-28T03:33:16.371Z,11.78
2018-04-28T03:39:23.176Z,11.67
2018-04-28T03:41:54.418Z,11.58
2018-04-28T03:50:28.822Z,11.67
2018-04-28T03:53:14.526Z,11.72
2018-04-28T03:55:42.906Z,11.79
2018-04-28T03:58:29.088Z,11.82
2018-04-28T04:01:16.156Z,11.72
2018-04-28T04:04:01.328Z,11.66
2018-04-28T04:13:01.796Z,11.51
2018-04-28T04:18:47.382Z,11.36
2018-04-28T04:21:18.991Z,11.36
2018-04-28T04:24:05.183Z,11.33
2018-04-28T04:32:43.693Z,11.35
2018-04-28T04:35:23.837Z,11.43
2018-04-28T04:38:04.083Z,11.47
2018-04-28T04:47:06.360Z,11.87
2018-04-28T04:52:47.032Z,11.86
2018-04-28T04:55:42.331Z,11.88
2018-04-28T05:01:46.381Z,11.93
2018-04-28T05:07:39.963Z,12.09
2018-04-28T05:13:20.894Z,12.30
2018-04-28T05:19:00.504Z,12.61
2018-04-28T05:21:39.261Z,12.73
2018-04-28T05:24:28.506Z,12.85
2018-04-28T05:26:58.937Z,12.98
2018-04-28T05:32:59.942Z,13.23
2018-04-28T05:39:08.327Z,13.48
2018-04-28T05:42:04.076Z,13.58
2018-04-28T05:44:46.281Z,13.67
2018-04-28T05:47:32.255Z,13.76
2018-04-28T05:50:12.279Z,13.83
2018-04-28T05:52:58.570Z,13.91
2018-04-28T05:55:53.320Z,13.96
2018-04-28T06:02:10.957Z,14.07
2018-04-28T06:04:54.528Z,14.12
2018-04-28T06:10:52.654Z,14.21
2018-04-28T06:13:30.719Z,14.27
2018-04-28T06:19:49.537Z,14.38
2018-04-28T06:22:18.114Z,14.43
2018-04-28T06:24:46.478Z,14.48
2018-04-28T06:27:14.821Z,14.54
2018-04-28T06:29:43.995Z,14.62
2018-04-28T06:32:12.403Z,14.70
2018-04-28T06:34:41.455Z,14.77
2018-04-28T06:37:10.610Z,14.87
2018-04-28T06:39:39.005Z,14.93
2018-04-28T06:42:07.404Z,15.02
2018-04-28T06:44:35.732Z,15.08
2018-04-28T06:47:04.921Z,15.15
2018-04-28T06:49:34.105Z,15.22
2018-04-28T06:52:02.489Z,15.22
2018-04-28T06:54:30.857Z,15.25
2018-04-28T06:56:59.220Z,15.27
2018-04-28T06:59:28.372Z,15.30
2018-04-28T07:01:56.805Z,15.30
2018-04-28T07:04:25.760Z,15.34
2018-04-28T07:06:54.098Z,15.41
2018-04-28T07:09:23.318Z,15.45
2018-04-28T07:11:51.680Z,15.48
2018-04-28T07:14:20.863Z,15.55
2018-04-28T07:16:49.306Z,15.56
2018-04-28T07:19:17.650Z,15.58
2018-04-28T07:21:46.008Z,15.60
2018-04-28T07:24:15.186Z,15.64
2018-04-28T07:26:43.530Z,15.68
2018-04-28T07:29:12.509Z,15.72
2018-04-28T07:31:41.257Z,15.76
2018-04-28T07:34:09.589Z,15.82
2018-04-28T07:36:37.928Z,15.90
2018-04-28T07:39:07.076Z,15.97
2018-04-28T07:41:35.421Z,16.02
2018-04-28T07:44:04.488Z,16.04
2018-04-28T07:46:33.669Z,16.08
2018-04-28T07:49:02.207Z,16.14
2018-04-28T07:51:31.312Z,16.14
2018-04-28T07:53:59.711Z,16.21
2018-04-28T07:56:31.760Z,16.28
2018-04-28T07:59:00.894Z,16.39
2018-04-28T08:01:29.275Z,16.48
2018-04-28T08:03:57.792Z,16.55
2018-04-28T08:06:26.272Z,16.61
2018-04-28T08:08:54.631Z,16.70
2018-04-28T08:11:23.787Z,16.71
2018-04-28T08:13:52.167Z,16.78
2018-04-28T08:16:20.509Z,16.83
2018-04-28T08:18:48.885Z,16.81
2018-04-28T08:21:17.230Z,16.81
2018-04-28T08:23:45.586Z,16.85
2018-04-28T08:26:14.792Z,16.97
2018-04-28T08:28:44.045Z,17.06
2018-04-28T08:31:12.674Z,17.07
2018-04-28T08:33:41.070Z,17.03
2018-04-28T08:36:10.263Z,17.03
2018-04-28T08:38:38.720Z,17.05
2018-04-28T08:41:07.100Z,17.05
2018-04-28T08:43:35.486Z,17.05
2018-04-28T08:46:03.861Z,17.04
2018-04-28T08:48:33.465Z,17.00
2018-04-28T08:51:01.965Z,17.01
2018-04-28T08:53:30.937Z,17.09
2018-04-28T08:55:59.275Z,17.16
2018-04-28T08:58:27.642Z,17.26
2018-04-28T09:01:02.792Z,17.31
2018-04-28T09:03:31.142Z,17.40
2018-04-28T09:05:59.486Z,17.37
2018-04-28T09:08:27.857Z,17.43
2018-04-28T09:10:56.185Z,17.50
2018-04-28T09:13:25.472Z,17.69
2018-04-28T09:15:53.971Z,17.80
2018-04-28T09:18:23.125Z,17.87
2018-04-28T09:20:52.064Z,18.00
2018-04-28T09:23:21.239Z,18.11
2018-04-28T09:25:50.374Z,18.15
2018-04-28T09:28:19.267Z,18.30
2018-04-28T09:30:49.109Z,18.37
2018-04-28T09:33:17.504Z,18.40
2018-04-28T09:35:45.959Z,18.47
2018-04-28T09:38:14.402Z,18.43
2018-04-28T09:40:44.188Z,18.54
2018-04-28T09:43:13.179Z,18.63
2018-04-28T09:45:41.769Z,18.59
2018-04-28T09:48:11.094Z,18.72
2018-04-28T09:50:40.668Z,18.74
2018-04-28T09:53:09.824Z,18.90
2018-04-28T09:55:39.613Z,19.05
2018-04-28T09:58:09.611Z,19.15
2018-04-28T10:00:56.727Z,19.19
2018-04-28T10:03:30.608Z,19.21
2018-04-28T10:05:59.110Z,19.26
2018-04-28T10:08:27.482Z,19.28
2018-04-28T10:10:55.872Z,19.17
2018-04-28T10:13:24.282Z,18.95
2018-04-28T10:15:52.656Z,18.71
2018-04-28T10:18:20.994Z,18.52
2018-04-28T10:20:49.354Z,18.37
2018-04-28T10:23:17.760Z,18.30
2018-04-28T10:25:46.561Z,18.23
2018-04-28T10:28:16.315Z,18.34
2018-04-28T10:30:44.638Z,18.39
2018-04-28T10:33:13.846Z,18.32
2018-04-28T10:35:49.891Z,18.25
2018-04-28T10:38:18.249Z,18.22
2018-04-28T10:40:50.032Z,18.15
2018-04-28T10:43:18.779Z,18.18
2018-04-28T10:45:48.012Z,18.26
2018-04-28T10:48:16.393Z,18.33
2018-04-28T10:50:45.625Z,18.37
2018-04-28T10:53:13.963Z,18.44
2018-04-28T10:55:42.388Z,18.45
2018-04-28T10:58:11.583Z,18.47
2018-04-28T11:00:39.982Z,18.52
2018-04-28T11:03:08.350Z,18.58
2018-04-28T11:05:36.752Z,18.58
2018-04-28T11:08:05.119Z,18.56
2018-04-28T11:10:34.520Z,18.60
2018-04-28T11:13:04.226Z,18.65
2018-04-28T11:15:32.744Z,18.91
2018-04-28T11:18:02.222Z,19.18
2018-04-28T11:20:32.634Z,19.15
2018-04-28T11:23:01.304Z,19.08
2018-04-28T11:25:29.726Z,19.07
2018-04-28T11:27:58.846Z,19.00
2018-04-28T11:30:27.229Z,18.96
2018-04-28T11:32:57.161Z,19.04
2018-04-28T11:35:26.429Z,19.08
2018-04-28T11:37:56.221Z,19.01
2018-04-28T11:40:24.593Z,19.05
2018-04-28T11:42:53.064Z,19.05
2018-04-28T11:45:24.028Z,19.02
2018-04-28T11:47:52.344Z,18.97
2018-04-28T11:50:21.536Z,18.88
2018-04-28T11:52:49.907Z,18.87
2018-04-28T11:55:19.216Z,18.91
2018-04-28T11:57:47.546Z,19.02
2018-04-28T12:00:15.967Z,19.04
2018-04-28T12:02:44.371Z,19.04
2018-04-28T12:05:13.463Z,18.96
2018-04-28T12:07:42.922Z,19.06
2018-04-28T12:10:11.437Z,19.23
2018-04-28T12:12:40.585Z,19.41
2018-04-28T12:15:09.738Z,19.52
2018-04-28T12:17:39.665Z,19.45
2018-04-28T12:20:08.777Z,19.35
2018-04-28T12:22:38.008Z,19.26
2018-04-28T12:25:07.202Z,19.12
2018-04-28T12:27:36.180Z,19.02
2018-04-28T12:30:04.619Z,18.91
2018-04-28T12:32:32.922Z,18.79
2018-04-28T12:35:01.396Z,18.77
2018-04-28T12:37:29.817Z,18.73
2018-04-28T12:39:58.180Z,18.77
2018-04-28T12:42:27.920Z,18.81
2018-04-28T12:44:57.754Z,18.86
2018-04-28T12:47:26.128Z,18.90
2018-04-28T12:49:55.359Z,18.95
2018-04-28T12:52:23.720Z,18.98
2018-04-28T12:54:52.787Z,19.04
2018-04-28T12:57:21.641Z,19.05
2018-04-28T12:59:49.988Z,19.06
2018-04-28T13:02:20.175Z,19.00
2018-04-28T13:04:48.557Z,18.98
2018-04-28T13:07:16.930Z,19.10
2018-04-28T13:09:45.303Z,19.40
2018-04-28T13:12:14.490Z,19.36
2018-04-28T13:14:43.771Z,19.26
2018-04-28T13:17:12.322Z,19.14
2018-04-28T13:19:41.416Z,19.02
2018-04-28T13:22:13.117Z,19.12
2018-04-28T13:24:41.790Z,19.59
2018-04-28T13:27:10.138Z,20.10
2018-04-28T13:29:39.297Z,20.58
2018-04-28T13:32:08.420Z,20.52
2018-04-28T13:34:38.379Z,20.70
2018-04-28T13:37:09.039Z,20.76
2018-04-28T13:39:40.151Z,20.94
2018-04-28T13:42:09.217Z,20.60
2018-04-28T13:44:40.001Z,20.77
2018-04-28T13:47:08.903Z,20.74
2018-04-28T13:49:38.400Z,20.92
2018-04-28T13:52:06.766Z,20.69
2018-04-28T13:54:35.880Z,20.50
2018-04-28T13:57:04.566Z,20.78
2018-04-28T13:59:32.980Z,20.74
2018-04-28T14:02:02.955Z,20.81
2018-04-28T14:04:32.560Z,21.16
2018-04-28T14:07:01.102Z,21.35
2018-04-28T14:09:30.241Z,21.48
2018-04-28T14:12:00.617Z,21.75
2018-04-28T14:14:29.884Z,21.83
2018-04-28T14:16:58.218Z,21.81
2018-04-28T14:19:26.701Z,22.01
2018-04-28T14:21:55.084Z,22.01
2018-04-28T14:24:23.680Z,22.05
2018-04-28T14:26:52.207Z,22.00
2018-04-28T14:29:20.593Z,21.79
2018-04-28T14:31:49.733Z,21.53
2018-04-28T14:34:18.100Z,21.15
2018-04-28T14:36:46.433Z,20.73
2018-04-28T14:39:14.815Z,20.41
2018-04-28T14:41:43.181Z,20.24
2018-04-28T14:44:11.624Z,20.15
2018-04-28T14:46:40.793Z,20.08
2018-04-28T14:49:09.946Z,20.04
2018-04-28T14:51:38.402Z,20.01
2018-04-28T14:54:07.612Z,20.03
2018-04-28T14:56:35.983Z,20.02
2018-04-28T14:59:04.387Z,19.93
2018-04-28T15:01:33.121Z,19.93
2018-04-28T15:04:01.524Z,19.83
2018-04-28T15:06:30.724Z,19.70
2018-04-28T15:08:59.101Z,20.00
2018-04-28T15:11:27.482Z,20.42
2018-04-28T15:13:56.472Z,20.52
2018-04-28T15:16:25.615Z,20.55
2018-04-28T15:18:54.782Z,20.42
2018-04-28T15:21:23.974Z,20.29
2018-04-28T15:23:53.139Z,20.19
2018-04-28T15:26:22.255Z,20.23
2018-04-28T15:28:50.900Z,20.26
2018-04-28T15:31:20.154Z,20.29
2018-04-28T15:33:48.496Z,20.32
2018-04-28T15:36:17.655Z,20.27
2018-04-28T15:38:46.002Z,20.29
2018-04-28T15:41:14.483Z,20.57
2018-04-28T15:43:42.793Z,20.90
2018-04-28T15:46:11.151Z,20.96
2018-04-28T15:48:40.282Z,20.58
2018-04-28T15:51:09.397Z,20.63
2018-04-28T15:53:38.523Z,20.64
2018-04-28T15:56:06.951Z,20.43
2018-04-28T15:58:36.101Z,20.35
2018-04-28T16:01:04.473Z,20.23
2018-04-28T16:03:32.863Z,19.93
2018-04-28T16:06:01.271Z,19.88
2018-04-28T16:08:29.658Z,19.91
2018-04-28T16:10:58.033Z,19.92
2018-04-28T16:13:26.482Z,19.86
2018-04-28T16:15:54.868Z,19.82
2018-04-28T16:18:23.797Z,19.74
2018-04-28T16:20:52.938Z,19.73
2018-04-28T16:23:21.300Z,19.59
2018-04-28T16:25:49.655Z,19.55
2018-04-28T16:28:19.694Z,19.53
2018-04-28T16:30:48.055Z,19.46
2018-04-28T16:33:17.186Z,19.43
2018-04-28T16:35:45.542Z,19.40
2018-04-28T16:38:13.918Z,19.34
2018-04-28T16:40:43.042Z,19.38
2018-04-28T16:43:11.384Z,19.47
2018-04-28T16:45:40.721Z,19.54
2018-04-28T16:48:09.790Z,19.51
2018-04-28T16:50:38.739Z,19.53
2018-04-28T16:53:07.682Z,19.52
2018-04-28T16:55:37.603Z,19.47
2018-04-28T16:58:05.996Z,19.50
2018-04-28T17:00:35.175Z,19.45
2018-04-28T17:03:06.315Z,19.39
2018-04-28T17:05:34.741Z,19.40
2018-04-28T17:08:03.517Z,19.38
2018-04-28T17:10:32.326Z,19.32
2018-04-28T17:13:01.485Z,19.29
2018-04-28T17:15:29.960Z,19.25
2018-04-28T17:17:58.523Z,19.16
2018-04-28T17:20:28.247Z,19.16
2018-04-28T17:22:57.053Z,19.17
2018-04-28T17:25:25.849Z,19.17
2018-04-28T17:27:54.243Z,19.07
2018-04-28T17:30:23.709Z,19.02
2018-04-28T17:32:52.965Z,18.95
2018-04-28T17:35:21.435Z,18.92
2018-04-28T17:37:49.830Z,18.87
2018-04-28T17:40:18.384Z,18.87
2018-04-28T17:42:46.933Z,18.80
2018-04-28T17:45:15.348Z,18.75
2018-04-28T17:47:43.731Z,18.75
2018-04-28T17:50:12.837Z,18.70
2018-04-28T17:52:43.010Z,18.66
2018-04-28T17:55:11.425Z,18.61
2018-04-28T17:57:39.899Z,18.60
2018-04-28T18:00:09.171Z,18.57
2018-04-28T18:02:38.359Z,18.55
2018-04-28T18:05:06.642Z,18.51
2018-04-28T18:07:35.810Z,18.45
2018-04-28T18:10:04.923Z,18.39
2018-04-28T18:12:34.177Z,18.33
2018-04-28T18:15:03.192Z,18.31
2018-04-28T18:17:32.008Z,18.17
2018-04-28T18:20:00.352Z,18.13
2018-04-28T18:22:28.699Z,18.10
2018-04-28T18:24:57.072Z,18.09
2018-04-28T18:27:25.448Z,18.03
2018-04-28T18:29:53.857Z,17.99
2018-04-28T18:32:22.562Z,17.99
2018-04-28T18:34:50.937Z,17.92
2018-04-28T18:37:20.210Z,17.90
2018-04-28T18:39:48.555Z,17.91
2018-04-28T18:42:17.566Z,17.89
2018-04-28T18:44:45.932Z,17.86
2018-04-28T18:47:14.288Z,17.85
2018-04-28T18:49:44.253Z,17.81
2018-04-28T18:52:12.626Z,17.80
2018-04-28T18:54:41.577Z,17.77
2018-04-28T18:57:11.213Z,17.74
2018-04-28T18:59:39.540Z,17.74
2018-04-28T19:02:07.965Z,17.74
2018-04-28T19:04:38.672Z,17.76
2018-04-28T19:07:07.957Z,17.78
2018-04-28T19:09:36.564Z,17.81
2018-04-28T19:12:05.692Z,17.81
2018-04-28T19:14:34.013Z,17.80
2018-04-28T19:17:02.377Z,17.79
2018-04-28T19:19:30.929Z,17.77
2018-04-28T19:21:59.399Z,17.75
2018-04-28T19:24:28.692Z,17.77
2018-04-28T19:26:57.804Z,17.77
2018-04-28T19:29:26.201Z,17.78
2018-04-28T19:31:54.556Z,17.77
2018-04-28T19:34:23.037Z,17.72
2018-04-28T19:36:51.362Z,17.73
2018-04-28T19:39:19.777Z,17.71
2018-04-28T19:41:48.792Z,17.68
2018-04-28T19:44:17.233Z,17.66
2018-04-28T19:46:46.344Z,17.65
2018-04-28T19:49:14.721Z,17.64
2018-04-28T19:51:44.022Z,17.64
2018-04-28T19:54:12.448Z,17.63
2018-04-28T19:56:40.806Z,17.60
2018-04-28T19:59:09.754Z,17.57
2018-04-28T20:01:38.864Z,17.57
2018-04-28T20:04:08.399Z,17.54
2018-04-28T20:06:37.576Z,17.49
2018-04-28T20:09:06.731Z,17.48
2018-04-28T20:11:36.021Z,17.45
2018-04-28T20:14:04.403Z,17.40
2018-04-28T20:16:32.790Z,17.33
2018-04-28T20:19:01.959Z,17.29
2018-04-28T20:21:30.361Z,17.29
2018-04-28T20:24:17.569Z,17.23
2018-04-28T20:26:45.900Z,17.07
2018-04-28T20:29:15.010Z,17.07
2018-04-28T20:31:43.421Z,17.09
2018-04-28T20:34:11.769Z,17.09
2018-04-28T20:36:40.115Z,17.09
2018-04-28T20:39:08.493Z,17.07
2018-04-28T20:41:37.639Z,17.05
2018-04-28T20:44:06.018Z,17.02
2018-04-28T20:46:34.374Z,16.99
2018-04-28T20:49:02.777Z,16.97
2018-04-28T20:51:32.300Z,16.97
2018-04-28T20:54:00.794Z,16.97
2018-04-28T20:56:29.983Z,16.95
2018-04-28T20:58:58.691Z,16.93
2018-04-28T21:01:27.708Z,16.89
2018-04-28T21:03:57.131Z,16.87
2018-04-28T21:06:25.478Z,16.87
2018-04-28T21:08:55.558Z,16.80
2018-04-28T21:11:23.911Z,16.78
2018-04-28T21:13:52.242Z,16.76
2018-04-28T21:16:21.365Z,16.70
2018-04-28T21:18:50.717Z,16.69
2018-04-28T21:21:20.034Z,16.65
2018-04-28T21:23:48.371Z,16.64
2018-04-28T21:26:16.780Z,16.62
2018-04-28T21:28:46.803Z,16.57
2018-04-28T21:31:15.221Z,16.56
2018-04-28T21:33:43.597Z,16.54
2018-04-28T21:36:12.721Z,16.48
2018-04-28T21:38:41.136Z,16.38
2018-04-28T21:41:09.590Z,16.35
2018-04-28T21:43:37.978Z,16.36
2018-04-28T21:46:06.427Z,16.36
2018-04-28T21:48:34.871Z,16.36
2018-04-28T21:51:04.051Z,16.36
2018-04-28T21:53:32.470Z,16.32
2018-04-28T21:56:00.904Z,16.30
2018-04-28T21:58:29.330Z,16.31
2018-04-28T22:00:59.359Z,16.34
2018-04-28T22:03:27.746Z,16.36
2018-04-28T22:05:56.333Z,16.38
2018-04-28T22:08:24.670Z,16.41
2018-04-28T22:10:53.842Z,16.40
2018-04-28T22:13:23.155Z,16.42
2018-04-28T22:15:51.508Z,16.41
2018-04-28T22:18:19.894Z,16.33
2018-04-28T22:20:48.276Z,16.36
2018-04-28T22:23:16.651Z,16.41
2018-04-28T22:25:44.988Z,16.42
2018-04-28T22:28:13.415Z,16.42
2018-04-28T22:30:41.763Z,16.40
2018-04-28T22:33:11.032Z,16.43
2018-04-28T22:35:40.203Z,16.39
2018-04-28T22:38:08.568Z,16.39
2018-04-28T22:40:37.598Z,16.37
2018-04-28T22:43:07.000Z,16.37
2018-04-28T22:45:37.144Z,16.34
2018-04-28T22:48:05.519Z,16.32
2018-04-28T22:50:34.128Z,16.33
2018-04-28T22:53:03.830Z,16.31
2018-04-28T22:55:33.043Z,16.30
2018-04-28T22:58:01.555Z,16.31
2018-04-28T23:00:45.309Z,16.30
2018-04-28T23:03:14.441Z,16.29
2018-04-28T23:05:42.843Z,16.29
2018-04-28T23:08:11.254Z,16.28
2018-04-28T23:10:40.357Z,16.24
2018-04-28T23:13:09.443Z,16.22
2018-04-28T23:15:37.819Z,16.19
2018-04-28T23:18:06.369Z,16.18
2018-04-28T23:20:34.730Z,16.17
2018-04-28T23:23:03.077Z,16.19
2018-04-28T23:25:32.377Z,16.17
2018-04-28T23:28:00.755Z,16.15
2018-04-28T23:30:29.873Z,16.10
2018-04-28T23:32:58.284Z,16.08
2018-04-28T23:35:26.974Z,16.05
2018-04-28T23:37:55.318Z,16.00
2018-04-28T23:40:23.679Z,15.91
2018-04-28T23:42:52.053Z,15.91
2018-04-28T23:45:21.220Z,15.97
2018-04-28T23:47:50.428Z,16.00
2018-04-28T23:50:18.791Z,16.02
2018-04-28T23:52:47.956Z,16.03
2018-04-28T23:55:16.884Z,16.02
2018-04-28T23:57:45.252Z,15.97
